createdAt,value
2023-01-30T00:01:00.235Z,-3274.90
2023-01-30T00:03:27.490Z,-3274.90
2023-01-30T00:05:54.356Z,-3274.90
2023-01-30T00:08:21.539Z,-3274.90
2023-01-30T00:10:49.315Z,-3274.80
2023-01-30T00:13:16.808Z,-3274.80
2023-01-30T00:15:44.017Z,-3274.80
2023-01-30T00:18:10.876Z,-3274.80
2023-01-30T00:20:37.716Z,-3274.90
2023-01-30T00:23:05.042Z,-3275.00
2023-01-30T00:25:31.973Z,-3275.00
2023-01-30T00:28:01.007Z,-3275.10
2023-01-30T00:30:28.412Z,-3275.10
2023-01-30T00:32:56.610Z,-3275.20
2023-01-30T00:35:28.325Z,-3275.20
2023-01-30T00:37:59.454Z,-3275.20
2023-01-30T00:40:28.373Z,-3275.20
2023-01-30T00:43:14.080Z,-3275.20
2023-01-30T00:46:02.872Z,-3275.20
2023-01-30T00:48:29.732Z,-3275.30
2023-01-30T00:50:59.441Z,-3275.30
2023-01-30T00:53:26.278Z,-3275.30
2023-01-30T00:55:53.932Z,-3275.40
2023-01-30T00:58:21.337Z,-3275.40
2023-01-30T01:00:49.126Z,-3275.40
2023-01-30T01:03:16.039Z,-3275.30
2023-01-30T01:05:43.481Z,-3275.30
2023-01-30T01:08:11.203Z,-3275.30
2023-01-30T01:10:38.391Z,-3275.30
2023-01-30T01:13:06.885Z,-3275.30
2023-01-30T01:15:34.008Z,-3275.20
2023-01-30T01:18:00.773Z,-3275.20
2023-01-30T01:20:27.612Z,-3275.20
2023-01-30T01:22:56.035Z,-3275.20
2023-01-30T01:25:24.542Z,-3275.20
2023-01-30T01:27:51.649Z,-3275.20
2023-01-30T01:30:18.568Z,-3275.30
2023-01-30T01:32:45.333Z,-3275.30
2023-01-30T01:35:12.382Z,-3275.30
2023-01-30T01:37:39.150Z,-3275.30
2023-01-30T01:40:25.698Z,-3275.30
2023-01-30T01:42:52.516Z,-3275.40
2023-01-30T01:45:23.129Z,-3275.50
2023-01-30T01:47:59.017Z,-3275.50
2023-01-30T01:50:32.393Z,-3275.50
2023-01-30T01:53:01.893Z,-3275.50
2023-01-30T01:55:30.203Z,-3275.50
2023-01-30T01:58:10.394Z,-3275.50
2023-01-30T02:00:37.131Z,-3275.50
2023-01-30T02:03:07.829Z,-3275.50
2023-01-30T02:05:38.297Z,-3275.40
2023-01-30T02:08:16.909Z,-3275.50
2023-01-30T02:11:07.265Z,-3275.50
2023-01-30T02:13:34.209Z,-3275.50
2023-01-30T02:16:04.353Z,-3275.50
2023-01-30T02:21:23.470Z,-3275.60
2023-01-30T02:24:17.818Z,-3275.60
2023-01-30T02:26:59.799Z,-3275.60
2023-01-30T02:30:06.808Z,-3275.60
2023-01-30T02:32:49.589Z,-3275.60
2023-01-30T02:35:23.144Z,-3275.60
2023-01-30T02:38:00.970Z,-3275.60
2023-01-30T02:40:33.967Z,-3275.70
2023-01-30T02:43:20.195Z,-3275.70
2023-01-30T02:46:06.550Z,-3275.60
2023-01-30T02:48:41.865Z,-3275.60
2023-01-30T02:51:36.658Z,-3275.60
2023-01-30T02:54:06.923Z,-3275.60
2023-01-30T02:56:52.531Z,-3275.70
2023-01-30T02:59:27.942Z,-3275.70
2023-01-30T03:02:25.368Z,-3275.70
2023-01-30T03:04:55.430Z,-3275.70
2023-01-30T03:07:59.578Z,-3275.70
2023-01-30T03:10:53.929Z,-3275.70
2023-01-30T03:13:29.268Z,-3275.70
2023-01-30T03:16:03.503Z,-3275.60
2023-01-30T03:18:31.449Z,-3275.60
2023-01-30T03:21:05.260Z,-3275.60
2023-01-30T03:23:32.092Z,-3275.50
2023-01-30T03:25:59.741Z,-3275.50
2023-01-30T03:28:27.912Z,-3275.50
2023-01-30T03:30:54.842Z,-3275.40
2023-01-30T03:33:21.784Z,-3275.50
2023-01-30T03:35:49.796Z,-3275.50
2023-01-30T03:38:18.185Z,-3275.50
2023-01-30T03:40:45.153Z,-3275.60
2023-01-30T03:43:11.901Z,-3275.70
2023-01-30T03:45:40.344Z,-3275.60
2023-01-30T03:48:07.916Z,-3275.60
2023-01-30T03:50:34.964Z,-3275.60
2023-01-30T03:53:02.263Z,-3275.70
2023-01-30T03:55:29.280Z,-3275.70
2023-01-30T03:57:57.472Z,-3275.70
2023-01-30T04:00:24.280Z,-3275.70
2023-01-30T04:02:51.402Z,-3275.70
2023-01-30T04:05:19.088Z,-3275.70
2023-01-30T04:07:45.953Z,-3275.70
2023-01-30T04:10:15.340Z,-3275.70
2023-01-30T04:12:43.001Z,-3275.70
2023-01-30T04:15:10.720Z,-3275.70
2023-01-30T04:17:37.759Z,-3275.70
2023-01-30T04:20:04.953Z,-3275.70
2023-01-30T04:22:32.836Z,-3275.70
2023-01-30T04:24:59.622Z,-3275.70
2023-01-30T04:27:26.379Z,-3275.60
2023-01-30T04:29:53.617Z,-3275.60
2023-01-30T04:32:20.361Z,-3275.60
2023-01-30T04:34:47.235Z,-3275.70
2023-01-30T04:37:13.990Z,-3275.60
2023-01-30T04:39:40.722Z,-3275.60
2023-01-30T04:42:07.445Z,-3275.60
2023-01-30T04:44:34.206Z,-3275.70
2023-01-30T04:47:01.070Z,-3275.70
2023-01-30T04:49:28.017Z,-3275.70
2023-01-30T04:51:54.746Z,-3275.70
2023-01-30T04:54:21.774Z,-3275.70
2023-01-30T04:56:48.509Z,-3275.70
2023-01-30T04:59:15.590Z,-3275.70
2023-01-30T05:01:42.895Z,-3275.70
2023-01-30T05:04:09.915Z,-3275.70
2023-01-30T05:06:37.049Z,-3275.70
2023-01-30T05:09:04.620Z,-3275.70
2023-01-30T05:11:32.219Z,-3275.70
2023-01-30T05:13:59.468Z,-3275.70
2023-01-30T05:16:27.342Z,-3275.70
2023-01-30T05:18:54.113Z,-3275.70
2023-01-30T05:21:27.794Z,-3275.70
2023-01-30T05:23:55.871Z,-3275.70
2023-01-30T05:26:23.817Z,-3275.70
2023-01-30T05:28:55.492Z,-3275.60
2023-01-30T05:31:22.708Z,-3275.60
2023-01-30T05:33:51.964Z,-3275.60
2023-01-30T05:36:20.655Z,-3275.60
2023-01-30T05:38:47.460Z,-3275.50
2023-01-30T05:41:15.684Z,-3275.60
2023-01-30T05:43:42.626Z,-3275.60
2023-01-30T05:46:12.265Z,-3275.60
2023-01-30T05:48:39.179Z,-3275.60
2023-01-30T05:51:06.648Z,-3275.60
2023-01-30T05:53:37.260Z,-3275.50
2023-01-30T05:56:05.483Z,-3275.50
2023-01-30T05:58:33.431Z,-3275.50
2023-01-30T06:01:05.344Z,-3275.50
2023-01-30T06:03:32.579Z,-3275.50
2023-01-30T06:06:01.609Z,-3275.50
2023-01-30T06:08:28.498Z,-3275.50
2023-01-30T06:10:55.305Z,-3275.40
2023-01-30T06:13:22.122Z,-3275.40
2023-01-30T06:15:48.879Z,-3275.40
2023-01-30T06:18:15.640Z,-3275.40
2023-01-30T06:20:50.420Z,-3275.40
2023-01-30T06:23:17.508Z,-3275.40
2023-01-30T06:25:49.008Z,-3275.40
2023-01-30T06:28:17.092Z,-3275.40
2023-01-30T06:30:44.122Z,-3275.50
2023-01-30T06:33:11.657Z,-3275.40
2023-01-30T06:35:39.369Z,-3275.40
2023-01-30T06:38:06.592Z,-3275.50
2023-01-30T06:40:33.369Z,-3275.50
2023-01-30T06:43:00.113Z,-3275.50
2023-01-30T06:45:26.870Z,-3275.50
2023-01-30T06:47:55.819Z,-3275.60
2023-01-30T06:50:25.035Z,-3275.50
2023-01-30T06:52:53.140Z,-3275.60
2023-01-30T06:55:22.748Z,-3275.60
2023-01-30T06:57:49.626Z,-3275.60
2023-01-30T07:00:20.352Z,-3275.60
2023-01-30T07:02:47.585Z,-3275.60
2023-01-30T07:05:14.677Z,-3275.60
2023-01-30T07:07:41.423Z,-3275.70
2023-01-30T07:10:09.332Z,-3275.70
2023-01-30T07:12:36.824Z,-3275.60
2023-01-30T07:15:05.221Z,-3275.70
2023-01-30T07:17:33.159Z,-3275.70
2023-01-30T07:20:00.060Z,-3275.70
2023-01-30T07:22:26.902Z,-3275.70
2023-01-30T07:24:53.670Z,-3275.70
2023-01-30T07:27:20.414Z,-3275.70
2023-01-30T07:29:47.286Z,-3275.70
2023-01-30T07:32:16.567Z,-3275.80
2023-01-30T07:34:43.572Z,-3275.80
2023-01-30T07:37:11.489Z,-3275.80
2023-01-30T07:39:38.233Z,-3275.90
2023-01-30T07:42:05.486Z,-3275.90
2023-01-30T07:44:34.029Z,-3275.90
2023-01-30T07:47:01.310Z,-3276.00
2023-01-30T07:49:28.128Z,-3276.00
2023-01-30T07:51:55.004Z,-3276.10
2023-01-30T07:54:21.718Z,-3276.10
2023-01-30T07:56:48.485Z,-3276.20
2023-01-30T07:59:15.885Z,-3276.20
2023-01-30T08:01:42.600Z,-3276.20
2023-01-30T08:04:11.089Z,-3276.20
2023-01-30T08:06:39.838Z,-3276.20
2023-01-30T08:09:07.475Z,-3276.20
2023-01-30T08:11:35.318Z,-3276.20
2023-01-30T08:14:02.556Z,-3276.30
2023-01-30T08:16:32.377Z,-3276.30
2023-01-30T08:18:59.356Z,-3276.30
2023-01-30T08:21:26.256Z,-3276.30
2023-01-30T08:23:53.008Z,-3276.30
2023-01-30T08:26:21.001Z,-3276.40
2023-01-30T08:28:48.082Z,-3276.40
2023-01-30T08:31:16.371Z,-3276.40
2023-01-30T08:33:44.496Z,-3276.50
2023-01-30T08:36:11.268Z,-3276.50
2023-01-30T08:38:38.051Z,-3276.50
2023-01-30T08:41:07.503Z,-3276.60
2023-01-30T08:43:35.189Z,-3276.70
2023-01-30T08:46:02.547Z,-3276.70
2023-01-30T08:48:36.711Z,0.00
2023-01-30T08:51:07.002Z,0.00
2023-01-30T08:53:33.759Z,0.10
2023-01-30T08:56:00.500Z,0.20
2023-01-30T08:58:27.239Z,0.30
2023-01-30T09:00:54.013Z,0.30
2023-01-30T09:03:20.743Z,0.40
2023-01-30T09:05:47.528Z,0.50
2023-01-30T09:08:14.272Z,0.60
2023-01-30T09:10:41.082Z,0.70
2023-01-30T09:13:09.577Z,0.80
2023-01-30T09:15:36.839Z,0.80
2023-01-30T09:18:04.975Z,0.80
2023-01-30T09:20:31.857Z,0.80
2023-01-30T09:22:58.753Z,0.80
2023-01-30T09:25:25.668Z,0.80
2023-01-30T09:27:52.483Z,0.80
2023-01-30T09:30:20.024Z,0.80
2023-01-30T09:32:47.679Z,0.80
2023-01-30T09:35:14.567Z,0.90
2023-01-30T09:37:51.964Z,0.90
2023-01-30T09:40:23.515Z,1.00
2023-01-30T09:43:15.119Z,1.00
2023-01-30T09:46:08.446Z,1.00
2023-01-30T09:48:44.979Z,1.00
2023-01-30T09:51:14.823Z,1.00
2023-01-30T09:54:18.011Z,1.00
2023-01-30T09:56:44.822Z,1.00
2023-01-30T09:59:22.237Z,0.90
2023-01-30T10:02:15.003Z,1.00
2023-01-30T10:05:00.669Z,0.90
2023-01-30T10:07:47.223Z,1.00
2023-01-30T10:10:43.427Z,0.90
2023-01-30T10:13:30.785Z,1.00
2023-01-30T10:16:30.405Z,1.00
2023-01-30T10:19:35.564Z,1.00
2023-01-30T10:22:16.666Z,1.00
2023-01-30T10:24:52.439Z,1.00
2023-01-30T10:27:21.111Z,0.90
2023-01-30T10:29:57.198Z,0.90
2023-01-30T10:32:28.936Z,0.90
2023-01-30T10:35:00.276Z,0.90
2023-01-30T10:37:35.819Z,0.80
2023-01-30T10:40:13.476Z,0.80
2023-01-30T10:42:46.703Z,0.80
2023-01-30T10:45:17.541Z,0.70
2023-01-30T10:48:08.536Z,0.70
2023-01-30T10:50:55.552Z,0.70
2023-01-30T10:53:43.078Z,0.70
2023-01-30T10:56:16.959Z,0.60
2023-01-30T10:58:54.095Z,0.60
2023-01-30T11:01:38.361Z,0.60
2023-01-30T11:04:22.353Z,0.60
2023-01-30T11:06:52.399Z,0.60
2023-01-30T11:09:20.434Z,0.60
2023-01-30T11:11:53.508Z,0.60
2023-01-30T11:14:21.216Z,0.60
2023-01-30T11:16:53.073Z,0.70
2023-01-30T11:19:42.123Z,0.80
2023-01-30T11:22:13.568Z,0.80
2023-01-30T11:24:43.359Z,0.80
2023-01-30T11:27:12.364Z,0.80
2023-01-30T11:29:39.888Z,0.80
2023-01-30T11:32:14.583Z,0.80
2023-01-30T11:34:43.726Z,0.80
2023-01-30T11:37:29.569Z,0.80
2023-01-30T11:39:56.550Z,0.80
2023-01-30T11:42:31.450Z,0.80
2023-01-30T11:45:17.327Z,0.80
2023-01-30T11:48:04.723Z,0.80
2023-01-30T11:50:46.538Z,0.80
2023-01-30T11:53:25.241Z,0.80
2023-01-30T11:56:03.783Z,0.80
2023-01-30T11:58:35.893Z,0.80
2023-01-30T12:01:04.152Z,0.80
2023-01-30T12:03:33.883Z,0.80
2023-01-30T12:06:00.739Z,0.80
2023-01-30T12:08:43.278Z,0.80
2023-01-30T12:11:24.934Z,0.80
2023-01-30T12:13:54.087Z,0.80
2023-01-30T12:17:09.287Z,0.80
2023-01-30T12:19:46.587Z,0.90
2023-01-30T12:22:20.690Z,0.90
2023-01-30T12:24:58.556Z,0.90
2023-01-30T12:27:43.199Z,0.90
2023-01-30T12:30:40.787Z,0.90
2023-01-30T12:33:12.913Z,0.90
2023-01-30T12:35:52.161Z,1.00
2023-01-30T12:38:47.244Z,1.10
2023-01-30T12:41:34.786Z,1.10
2023-01-30T12:44:19.274Z,1.20
2023-01-30T12:47:20.795Z,1.20
2023-01-30T12:50:11.212Z,1.30
2023-01-30T12:52:53.999Z,1.30
2023-01-30T12:55:41.600Z,1.30
2023-01-30T12:58:34.879Z,1.40
2023-01-30T13:01:32.590Z,1.50
2023-01-30T13:04:15.462Z,1.50
2023-01-30T13:06:57.828Z,1.40
2023-01-30T13:09:49.259Z,1.50
2023-01-30T13:12:21.860Z,1.50
2023-01-30T13:14:55.808Z,1.50
2023-01-30T13:17:48.730Z,1.40
2023-01-30T13:20:27.008Z,1.50
2023-01-30T13:23:10.972Z,1.50
2023-01-30T13:26:01.035Z,1.50
2023-01-30T13:28:42.535Z,1.60
2023-01-30T13:31:14.769Z,1.60
2023-01-30T13:33:44.797Z,1.60
2023-01-30T13:36:56.033Z,1.60
2023-01-30T13:39:46.211Z,1.70
2023-01-30T13:42:25.340Z,1.70
2023-01-30T13:44:53.634Z,1.80
2023-01-30T13:48:22.364Z,1.90
2023-01-30T13:51:19.614Z,2.10
2023-01-30T13:54:03.175Z,2.10
2023-01-30T13:56:41.865Z,2.00
2023-01-30T13:59:30.808Z,1.90
2023-01-30T14:02:03.962Z,1.80
2023-01-30T14:04:50.317Z,1.80
2023-01-30T14:07:41.099Z,1.80
2023-01-30T14:10:10.681Z,1.80
2023-01-30T14:12:49.428Z,1.90
2023-01-30T14:15:16.394Z,2.20
2023-01-30T14:18:20.486Z,2.20
2023-01-30T14:20:50.324Z,2.40
2023-01-30T14:23:24.108Z,2.70
2023-01-30T14:25:52.889Z,2.80
2023-01-30T14:28:19.564Z,2.50
2023-01-30T14:30:52.170Z,2.50
2023-01-30T14:33:22.005Z,2.50
2023-01-30T14:35:51.727Z,2.40
2023-01-30T14:38:20.460Z,2.30
2023-01-30T14:40:59.155Z,2.40
2023-01-30T14:43:25.843Z,2.30
2023-01-30T14:45:56.898Z,2.40
2023-01-30T14:48:56.806Z,2.40
2023-01-30T14:51:39.813Z,2.40
2023-01-30T14:54:12.835Z,2.50
2023-01-30T14:56:46.066Z,2.60
2023-01-30T14:59:15.905Z,2.60
2023-01-30T15:02:01.514Z,2.70
2023-01-30T15:04:49.125Z,2.50
2023-01-30T15:07:28.237Z,2.50
2023-01-30T15:09:57.915Z,2.40
2023-01-30T15:12:41.546Z,2.40
2023-01-30T15:15:14.250Z,2.40
2023-01-30T15:17:58.238Z,2.40
2023-01-30T15:20:53.422Z,2.40
2023-01-30T15:23:41.828Z,2.50
2023-01-30T15:26:30.781Z,2.60
2023-01-30T15:29:06.332Z,2.60
2023-01-30T15:31:33.805Z,2.50
2023-01-30T15:34:00.650Z,2.60
2023-01-30T15:36:33.216Z,2.50
2023-01-30T15:39:24.575Z,2.50
2023-01-30T15:41:52.934Z,2.50
2023-01-30T15:44:22.493Z,2.60
2023-01-30T15:47:11.346Z,2.50
2023-01-30T15:50:01.359Z,2.50
2023-01-30T15:52:44.318Z,2.40
2023-01-30T15:55:32.924Z,2.40
2023-01-30T15:58:04.644Z,2.40
2023-01-30T16:00:39.163Z,2.40
2023-01-30T16:03:11.278Z,2.40
2023-01-30T16:05:47.556Z,2.40
2023-01-30T16:08:23.228Z,2.40
2023-01-30T16:10:51.639Z,2.40
2023-01-30T16:13:23.771Z,2.40
2023-01-30T16:16:02.452Z,2.40
2023-01-30T16:18:35.736Z,2.30
2023-01-30T16:21:09.798Z,2.30
2023-01-30T16:23:41.615Z,2.30
2023-01-30T16:26:17.616Z,2.40
2023-01-30T16:28:45.708Z,2.30
2023-01-30T16:31:15.769Z,2.40
2023-01-30T16:33:52.571Z,2.30
2023-01-30T16:36:20.756Z,2.20
2023-01-30T16:38:50.142Z,2.10
2023-01-30T16:41:35.200Z,2.00
2023-01-30T16:44:22.150Z,2.00
2023-01-30T16:47:14.338Z,2.00
2023-01-30T16:49:48.512Z,2.00
2023-01-30T16:52:44.373Z,2.00
2023-01-30T16:55:23.633Z,2.00
2023-01-30T16:57:57.584Z,2.10
2023-01-30T17:00:28.411Z,2.10
2023-01-30T17:03:19.549Z,2.20
2023-01-30T17:05:49.451Z,2.20
2023-01-30T17:08:52.383Z,2.20
2023-01-30T17:11:40.104Z,2.30
2023-01-30T17:14:10.574Z,2.30
2023-01-30T17:16:39.282Z,2.30
2023-01-30T17:19:06.372Z,2.30
2023-01-30T17:21:47.778Z,2.20
2023-01-30T17:24:18.239Z,2.30
2023-01-30T17:26:49.218Z,2.40
2023-01-30T17:29:28.920Z,2.40
2023-01-30T17:32:10.404Z,2.40
2023-01-30T17:34:40.845Z,2.40
2023-01-30T17:37:15.192Z,2.40
2023-01-30T17:39:41.980Z,2.40
2023-01-30T17:42:13.184Z,2.50
2023-01-30T17:44:40.605Z,2.40
2023-01-30T17:47:10.944Z,2.40
2023-01-30T17:49:37.833Z,2.40
2023-01-30T17:52:04.908Z,2.50
2023-01-30T17:54:31.723Z,2.50
2023-01-30T17:57:04.608Z,2.50
2023-01-30T17:59:32.579Z,2.60
2023-01-30T18:01:59.858Z,2.70
2023-01-30T18:04:26.789Z,2.70
2023-01-30T18:07:06.279Z,2.80
2023-01-30T18:09:33.072Z,2.80
2023-01-30T18:11:59.805Z,2.70
2023-01-30T18:14:26.598Z,2.70
2023-01-30T18:16:59.706Z,2.80
2023-01-30T18:19:28.150Z,2.70
2023-01-30T18:21:54.915Z,2.80
2023-01-30T18:24:21.667Z,2.70
2023-01-30T18:26:48.544Z,2.70
2023-01-30T18:29:15.444Z,2.70
2023-01-30T18:31:42.355Z,2.80
2023-01-30T18:34:11.056Z,2.70
2023-01-30T18:36:38.497Z,2.70
2023-01-30T18:39:05.917Z,2.60
2023-01-30T18:41:32.874Z,2.70
2023-01-30T18:44:02.255Z,2.80
2023-01-30T18:46:29.837Z,2.80
2023-01-30T18:48:57.646Z,2.80
2023-01-30T18:51:31.299Z,2.60
2023-01-30T18:53:59.496Z,2.60
2023-01-30T18:56:29.412Z,2.70
2023-01-30T18:58:56.886Z,2.70
2023-01-30T19:01:26.552Z,2.60
2023-01-30T19:03:58.180Z,2.60
2023-01-30T19:06:26.031Z,2.60
2023-01-30T19:08:52.950Z,2.60
2023-01-30T19:11:40.135Z,2.70
2023-01-30T19:14:08.190Z,2.60
2023-01-30T19:16:37.271Z,2.50
2023-01-30T19:19:04.906Z,2.50
2023-01-30T19:21:31.821Z,2.50
2023-01-30T19:23:59.567Z,2.50
2023-01-30T19:26:28.777Z,2.70
2023-01-30T19:28:55.606Z,2.50
2023-01-30T19:31:22.724Z,2.60
2023-01-30T19:33:58.408Z,2.60
2023-01-30T19:36:26.693Z,2.50
2023-01-30T19:38:53.900Z,2.60
2023-01-30T19:41:26.048Z,2.60
2023-01-30T19:43:53.816Z,2.60
2023-01-30T19:46:21.324Z,2.40
2023-01-30T19:48:49.042Z,2.40
2023-01-30T19:51:20.412Z,2.40
2023-01-30T19:53:52.634Z,2.30
2023-01-30T19:56:22.158Z,2.50
2023-01-30T19:58:52.309Z,2.40
2023-01-30T20:01:21.378Z,2.50
2023-01-30T20:03:48.590Z,2.40
2023-01-30T20:06:17.736Z,2.40
2023-01-30T20:08:46.079Z,2.50
2023-01-30T20:11:15.318Z,2.60
2023-01-30T20:13:43.184Z,2.60
2023-01-30T20:16:12.484Z,2.50
2023-01-30T20:18:40.201Z,2.40
2023-01-30T20:21:17.286Z,2.30
2023-01-30T20:23:45.307Z,2.40
2023-01-30T20:26:15.094Z,2.50
2023-01-30T20:28:42.266Z,2.60
2023-01-30T20:31:10.368Z,2.40
2023-01-30T20:33:37.327Z,2.40
2023-01-30T20:36:06.134Z,2.30
2023-01-30T20:38:34.281Z,2.40
2023-01-30T20:41:06.119Z,2.40
2023-01-30T20:43:33.924Z,2.40
2023-01-30T20:46:29.764Z,2.30
2023-01-30T20:48:58.566Z,2.40
2023-01-30T20:51:27.543Z,2.30
2023-01-30T20:54:00.134Z,2.40
2023-01-30T20:56:31.547Z,2.30
2023-01-30T20:58:58.444Z,2.40
2023-01-30T21:01:25.726Z,2.40
2023-01-30T21:03:53.736Z,2.40
2023-01-30T21:06:41.221Z,2.40
2023-01-30T21:09:17.537Z,2.40
2023-01-30T21:11:44.988Z,2.40
2023-01-30T21:14:12.043Z,2.40
2023-01-30T21:16:39.511Z,2.40
2023-01-30T21:19:10.089Z,2.40
2023-01-30T21:21:44.415Z,2.50
2023-01-30T21:24:14.567Z,2.50
2023-01-30T21:26:45.940Z,2.50
2023-01-30T21:29:15.695Z,2.60
2023-01-30T21:31:43.619Z,2.60
2023-01-30T21:34:11.095Z,2.50
2023-01-30T21:36:38.003Z,2.70
2023-01-30T21:39:23.624Z,2.60
2023-01-30T21:42:09.376Z,2.60
2023-01-30T21:44:37.856Z,2.60
2023-01-30T21:47:06.679Z,2.50
2023-01-30T21:49:34.202Z,2.60
2023-01-30T21:52:00.960Z,2.60
2023-01-30T21:54:28.035Z,2.60
2023-01-30T21:56:55.681Z,2.60
2023-01-30T21:59:22.457Z,2.70
2023-01-30T22:01:49.635Z,2.70
2023-01-30T22:04:16.798Z,2.70
2023-01-30T22:06:43.955Z,2.70
2023-01-30T22:09:16.201Z,2.60
2023-01-30T22:11:43.793Z,2.70
2023-01-30T22:14:13.274Z,2.70
2023-01-30T22:16:40.825Z,2.70
2023-01-30T22:19:08.212Z,2.70
2023-01-30T22:21:38.670Z,2.80
2023-01-30T22:24:08.301Z,2.80
2023-01-30T22:26:35.468Z,2.70
2023-01-30T22:29:04.339Z,2.70
2023-01-30T22:31:36.386Z,2.60
2023-01-30T22:34:04.497Z,2.60
2023-01-30T22:36:33.672Z,2.70
2023-01-30T22:39:01.136Z,2.70
2023-01-30T22:41:30.683Z,2.60
2023-01-30T22:43:59.535Z,2.80
2023-01-30T22:46:31.277Z,2.70
2023-01-30T22:48:59.392Z,2.70
2023-01-30T22:51:28.764Z,2.80
2023-01-30T22:53:58.724Z,2.70
2023-01-30T22:56:28.484Z,2.70
2023-01-30T22:58:55.730Z,2.80
2023-01-30T23:01:25.498Z,2.70
2023-01-30T23:03:58.100Z,2.80
2023-01-30T23:06:25.738Z,2.80
2023-01-30T23:08:54.123Z,2.70
2023-01-30T23:11:21.019Z,2.70
2023-01-30T23:13:50.121Z,2.60
2023-01-30T23:16:19.753Z,2.70
2023-01-30T23:18:55.532Z,2.70
2023-01-30T23:21:28.417Z,2.70
2023-01-30T23:23:57.167Z,2.70
2023-01-30T23:26:25.862Z,2.70
2023-01-30T23:28:52.952Z,2.70
2023-01-30T23:31:22.377Z,2.70
2023-01-30T23:33:54.337Z,2.80
2023-01-30T23:36:22.164Z,2.80
2023-01-30T23:38:50.673Z,2.80
2023-01-30T23:41:20.549Z,2.90
2023-01-30T23:43:48.153Z,2.80
2023-01-30T23:46:20.016Z,2.80
2023-01-30T23:48:49.616Z,2.80
2023-01-30T23:51:17.957Z,2.80
2023-01-30T23:53:45.307Z,2.80
2023-01-30T23:56:12.675Z,2.90
2023-01-30T23:58:40.191Z,2.90
